createdAt,value
2023-05-29T00:02:55.561Z,4.30
2023-05-29T00:05:57.494Z,3.75
2023-05-29T00:09:05.817Z,3.78
2023-05-29T00:12:08.284Z,4.00
2023-05-29T00:15:14.460Z,4.15
2023-05-29T00:18:16.874Z,4.78
2023-05-29T00:21:20.769Z,3.63
2023-05-29T00:24:23.215Z,4.38
2023-05-29T00:27:25.056Z,4.32
2023-05-29T00:30:26.901Z,4.32
2023-05-29T00:33:28.982Z,4.20
2023-05-29T00:36:32.815Z,4.35
2023-05-29T00:39:34.659Z,4.00
2023-05-29T00:42:36.658Z,4.72
2023-05-29T00:45:39.397Z,4.55
2023-05-29T00:48:43.161Z,4.82
2023-05-29T00:51:45.701Z,5.05
2023-05-29T00:54:48.125Z,4.70
2023-05-29T00:57:51.962Z,4.82
2023-05-29T01:00:55.079Z,4.97
2023-05-29T01:04:00.437Z,4.88
2023-05-29T01:07:05.578Z,5.35
2023-05-29T01:10:09.030Z,4.75
2023-05-29T01:16:32.467Z,5.40
2023-05-29T01:20:07.970Z,5.38
2023-05-29T01:23:42.740Z,5.82
2023-05-29T01:26:57.092Z,5.95
2023-05-29T01:30:00.000Z,5.10
2023-05-29T01:33:02.574Z,5.35
2023-05-29T01:36:07.941Z,6.00
2023-05-29T01:39:11.222Z,5.97
2023-05-29T01:42:13.769Z,6.25
2023-05-29T01:45:15.853Z,5.93
2023-05-29T01:48:18.680Z,6.28
2023-05-29T01:51:26.459Z,5.50
2023-05-29T01:54:28.326Z,6.22
2023-05-29T01:57:30.697Z,6.18
2023-05-29T02:00:33.372Z,5.70
2023-05-29T02:03:36.613Z,5.88
2023-05-29T02:06:38.464Z,6.43
2023-05-29T02:09:40.870Z,7.05
2023-05-29T02:12:42.771Z,6.50
2023-05-29T02:15:45.301Z,7.07
2023-05-29T02:18:49.899Z,7.13
2023-05-29T02:21:56.014Z,6.68
2023-05-29T02:24:57.932Z,6.60
2023-05-29T02:27:59.976Z,7.72
2023-05-29T02:31:06.087Z,7.35
2023-05-29T02:34:07.945Z,6.68
2023-05-29T02:37:11.366Z,7.63
2023-05-29T02:43:15.715Z,7.53
2023-05-29T02:46:17.597Z,6.80
2023-05-29T02:49:19.522Z,7.22
2023-05-29T02:52:21.448Z,6.93
2023-05-29T02:55:31.213Z,6.85
2023-05-29T02:58:34.198Z,6.88
2023-05-29T03:01:36.512Z,5.93
2023-05-29T03:04:38.491Z,6.00
2023-05-29T03:07:41.309Z,5.72
2023-05-29T03:10:44.787Z,5.90
2023-05-29T03:16:50.570Z,5.60
2023-05-29T03:19:54.428Z,6.05
2023-05-29T03:22:56.699Z,5.47
2023-05-29T03:25:58.525Z,6.68
2023-05-29T03:29:00.351Z,5.53
2023-05-29T03:32:02.347Z,5.65
2023-05-29T03:35:04.734Z,5.40
2023-05-29T03:38:07.148Z,4.97
2023-05-29T03:41:09.091Z,4.93
2023-05-29T03:44:11.363Z,4.90
2023-05-29T03:47:13.496Z,5.03
2023-05-29T03:50:17.677Z,4.70
2023-05-29T03:53:19.570Z,4.55
2023-05-29T03:56:22.733Z,4.60
2023-05-29T03:59:24.821Z,4.82
2023-05-29T04:02:31.475Z,3.60
2023-05-29T04:05:33.477Z,4.38
2023-05-29T04:08:35.757Z,4.13
2023-05-29T04:11:39.896Z,4.20
2023-05-29T04:14:42.601Z,4.45
2023-05-29T04:17:44.634Z,4.40
2023-05-29T04:20:54.403Z,4.38
2023-05-29T04:23:56.477Z,4.10
2023-05-29T04:27:01.710Z,4.20
2023-05-29T04:30:07.172Z,4.10
2023-05-29T04:33:12.334Z,4.30
2023-05-29T04:36:14.477Z,3.97
2023-05-29T04:39:16.604Z,4.15
2023-05-29T04:42:18.416Z,3.80
2023-05-29T04:45:28.299Z,4.00
2023-05-29T04:48:30.219Z,3.75
2023-05-29T04:51:33.053Z,3.13
2023-05-29T04:54:36.611Z,4.13
2023-05-29T05:00:41.208Z,3.63
2023-05-29T05:03:44.051Z,3.78
2023-05-29T05:06:46.054Z,3.63
2023-05-29T05:09:49.088Z,3.78
2023-05-29T05:12:50.977Z,3.80
2023-05-29T05:15:53.181Z,3.70
2023-05-29T05:18:57.328Z,4.18
2023-05-29T05:22:00.078Z,3.22
2023-05-29T05:25:01.952Z,3.50
2023-05-29T05:28:06.555Z,4.40
2023-05-29T05:31:08.724Z,4.25
2023-05-29T05:34:11.480Z,3.40
2023-05-29T05:37:13.354Z,3.70
2023-05-29T05:40:16.442Z,3.30
2023-05-29T05:43:18.551Z,4.15
2023-05-29T05:46:20.416Z,3.92
2023-05-29T05:49:22.229Z,3.67
2023-05-29T05:52:28.600Z,3.65
2023-05-29T05:55:30.672Z,3.60
2023-05-29T05:58:32.697Z,3.92
2023-05-29T06:01:34.508Z,3.60
2023-05-29T06:04:36.921Z,3.13
2023-05-29T06:07:39.619Z,4.05
2023-05-29T06:10:42.225Z,4.00
2023-05-29T06:13:44.265Z,3.60
2023-05-29T06:16:46.073Z,3.47
2023-05-29T06:19:48.410Z,3.88
2023-05-29T06:22:56.311Z,4.03
2023-05-29T06:25:58.221Z,4.28
2023-05-29T06:29:00.206Z,3.58
2023-05-29T06:32:02.166Z,4.65
2023-05-29T06:35:09.893Z,3.45
2023-05-29T06:38:11.922Z,3.92
2023-05-29T06:41:13.731Z,4.80
2023-05-29T06:44:15.667Z,5.03
2023-05-29T06:47:17.660Z,4.07
2023-05-29T06:50:19.712Z,3.80
2023-05-29T06:53:21.663Z,4.22
2023-05-29T06:56:23.558Z,4.00
2023-05-29T06:59:26.281Z,4.22
2023-05-29T07:02:28.333Z,3.70
2023-05-29T07:05:30.144Z,3.70
2023-05-29T07:08:31.974Z,4.40
2023-05-29T07:11:33.747Z,4.13
2023-05-29T07:14:35.719Z,4.03
2023-05-29T07:17:39.225Z,4.10
2023-05-29T07:20:42.679Z,4.22
2023-05-29T07:26:46.442Z,3.55
2023-05-29T07:29:48.240Z,4.28
2023-05-29T07:32:50.289Z,4.00
2023-05-29T07:35:52.518Z,4.22
2023-05-29T07:38:54.872Z,4.40
2023-05-29T07:42:02.120Z,3.80
2023-05-29T07:45:04.226Z,4.20
2023-05-29T07:48:08.067Z,4.25
2023-05-29T07:51:11.503Z,3.80
2023-05-29T07:57:15.294Z,3.40
2023-05-29T08:00:17.496Z,3.67
2023-05-29T08:03:19.799Z,3.95
2023-05-29T08:06:22.868Z,4.07
2023-05-29T08:09:24.740Z,4.40
2023-05-29T08:12:27.465Z,4.03
2023-05-29T08:15:29.338Z,4.30
2023-05-29T08:18:33.907Z,4.07
2023-05-29T08:21:45.878Z,3.75
2023-05-29T08:24:47.898Z,3.60
2023-05-29T08:27:49.675Z,3.45
2023-05-29T08:30:53.335Z,3.67
2023-05-29T08:33:56.009Z,4.00
2023-05-29T08:36:58.823Z,3.60
2023-05-29T08:40:01.046Z,4.20
2023-05-29T08:43:17.375Z,3.47
2023-05-29T08:46:20.883Z,3.92
2023-05-29T08:49:24.221Z,4.18
2023-05-29T08:52:27.856Z,4.22
2023-05-29T08:55:30.223Z,3.60
2023-05-29T08:58:32.478Z,4.03
2023-05-29T09:01:41.236Z,3.60
2023-05-29T09:04:46.055Z,3.67
2023-05-29T09:07:50.874Z,4.25
2023-05-29T09:10:52.987Z,3.55
2023-05-29T09:13:58.537Z,4.18
2023-05-29T09:17:00.467Z,4.18
2023-05-29T09:20:08.299Z,3.17
2023-05-29T09:23:11.179Z,3.30
2023-05-29T09:26:15.705Z,3.40
2023-05-29T09:29:18.037Z,4.53
2023-05-29T09:32:20.887Z,3.97
2023-05-29T09:35:22.899Z,4.50
2023-05-29T09:38:38.414Z,3.65
2023-05-29T09:41:49.363Z,3.77
2023-05-29T09:44:54.822Z,3.80
2023-05-29T09:47:56.825Z,3.83
2023-05-29T09:50:59.604Z,4.13
2023-05-29T09:54:17.612Z,4.07
2023-05-29T09:57:19.665Z,3.70
2023-05-29T10:00:22.685Z,3.88
2023-05-29T10:03:25.358Z,4.05
2023-05-29T10:06:30.625Z,4.15
2023-05-29T10:09:34.732Z,3.70
2023-05-29T10:12:40.045Z,4.18
2023-05-29T10:15:48.709Z,4.22
2023-05-29T10:18:57.194Z,4.35
2023-05-29T10:22:02.614Z,4.15
2023-05-29T10:25:05.297Z,3.70
2023-05-29T10:28:08.237Z,3.75
2023-05-29T10:31:15.124Z,4.03
2023-05-29T10:34:40.664Z,3.80
2023-05-29T10:38:03.957Z,3.83
2023-05-29T10:41:29.929Z,3.85
2023-05-29T10:44:31.832Z,3.97
2023-05-29T10:47:33.831Z,4.13
2023-05-29T10:50:46.841Z,4.15
2023-05-29T10:53:49.657Z,4.18
2023-05-29T10:56:57.769Z,3.22
2023-05-29T11:00:08.297Z,3.85
2023-05-29T11:03:11.971Z,3.63
2023-05-29T11:06:26.444Z,3.20
2023-05-29T11:09:32.838Z,3.22
2023-05-29T11:12:37.699Z,4.05
2023-05-29T11:15:39.687Z,4.07
2023-05-29T11:18:45.873Z,3.38
2023-05-29T11:22:06.418Z,3.75
2023-05-29T11:25:08.871Z,3.83
2023-05-29T11:28:12.039Z,3.65
2023-05-29T11:31:16.050Z,3.40
2023-05-29T11:34:18.260Z,3.70
2023-05-29T11:37:20.451Z,3.60
2023-05-29T11:40:22.433Z,3.83
2023-05-29T11:43:25.900Z,3.40
2023-05-29T11:49:34.182Z,3.15
2023-05-29T11:52:36.725Z,3.45
2023-05-29T11:55:43.498Z,3.50
2023-05-29T11:58:46.834Z,2.90
2023-05-29T12:01:49.843Z,2.70
2023-05-29T12:05:10.688Z,2.95
2023-05-29T12:08:19.218Z,3.30
2023-05-29T12:11:25.030Z,3.30
2023-05-29T12:14:26.965Z,3.13
2023-05-29T12:17:32.303Z,3.10
2023-05-29T12:20:36.644Z,3.70
2023-05-29T12:23:40.132Z,3.15
2023-05-29T12:29:45.048Z,3.30
2023-05-29T12:32:50.521Z,3.17
2023-05-29T12:35:52.796Z,3.55
2023-05-29T12:38:55.097Z,3.60
2023-05-29T12:41:56.901Z,3.03
2023-05-29T12:45:10.102Z,3.10
2023-05-29T12:48:12.619Z,3.47
2023-05-29T12:51:14.884Z,2.97
2023-05-29T12:54:18.047Z,2.72
2023-05-29T12:57:24.539Z,3.03
2023-05-29T13:00:27.294Z,2.50
2023-05-29T13:03:29.290Z,3.17
2023-05-29T13:06:31.587Z,2.83
2023-05-29T13:09:33.491Z,3.05
2023-05-29T13:12:36.425Z,3.25
2023-05-29T13:15:39.210Z,2.97
2023-05-29T13:18:49.816Z,2.72
2023-05-29T13:21:51.777Z,3.33
2023-05-29T13:24:53.582Z,3.42
2023-05-29T13:27:55.818Z,2.80
2023-05-29T13:30:57.789Z,3.00
2023-05-29T13:33:59.603Z,3.22
2023-05-29T13:37:02.584Z,2.90
2023-05-29T13:40:05.994Z,3.17
2023-05-29T13:43:07.925Z,3.05
2023-05-29T13:46:10.541Z,3.53
2023-05-29T13:49:12.592Z,3.10
2023-05-29T13:52:14.720Z,3.40
2023-05-29T13:55:16.643Z,3.42
2023-05-29T13:58:19.383Z,3.25
2023-05-29T14:01:21.964Z,3.35
2023-05-29T14:04:25.392Z,3.63
2023-05-29T14:10:29.384Z,3.13
2023-05-29T14:13:31.209Z,3.08
2023-05-29T14:16:35.084Z,2.92
2023-05-29T14:19:37.886Z,3.28
2023-05-29T14:22:40.590Z,2.93
2023-05-29T14:25:43.341Z,3.10
2023-05-29T14:28:47.385Z,2.80
2023-05-29T14:31:49.518Z,3.20
2023-05-29T14:35:00.302Z,3.17
2023-05-29T14:38:02.540Z,3.00
2023-05-29T14:41:09.549Z,2.90
2023-05-29T14:44:13.621Z,2.92
2023-05-29T14:47:15.762Z,3.00
2023-05-29T14:50:17.770Z,3.20
2023-05-29T14:53:21.519Z,3.30
2023-05-29T14:56:23.753Z,2.55
2023-05-29T14:59:27.142Z,2.95
2023-05-29T15:05:32.398Z,3.13
2023-05-29T15:08:35.613Z,2.45
2023-05-29T15:11:37.818Z,2.53
2023-05-29T15:14:39.626Z,2.88
2023-05-29T15:17:42.977Z,2.58
2023-05-29T15:23:47.584Z,3.55
2023-05-29T15:26:49.474Z,3.42
2023-05-29T15:29:51.309Z,3.05
2023-05-29T15:32:53.399Z,3.15
2023-05-29T15:35:55.511Z,3.15
2023-05-29T15:38:57.816Z,2.80
2023-05-29T15:42:04.410Z,2.70
2023-05-29T15:45:06.760Z,2.88
2023-05-29T15:48:13.345Z,2.95
2023-05-29T15:51:15.388Z,3.13
2023-05-29T15:54:17.340Z,2.88
2023-05-29T15:57:19.124Z,2.75
2023-05-29T16:00:21.474Z,2.97
2023-05-29T16:03:23.802Z,3.15
2023-05-29T16:06:26.549Z,2.95
2023-05-29T16:09:28.978Z,3.22
2023-05-29T16:12:32.517Z,2.70
2023-05-29T16:15:34.359Z,2.75
2023-05-29T16:18:36.637Z,2.88
2023-05-29T16:21:38.689Z,3.42
2023-05-29T16:24:40.790Z,2.75
2023-05-29T16:27:42.783Z,2.88
2023-05-29T16:30:44.644Z,2.90
2023-05-29T16:33:46.963Z,2.92
2023-05-29T16:36:48.846Z,2.60
2023-05-29T16:39:50.845Z,3.13
2023-05-29T16:42:53.466Z,2.78
2023-05-29T16:45:55.826Z,2.70
2023-05-29T16:48:58.782Z,3.15
2023-05-29T16:52:01.020Z,3.17
2023-05-29T16:55:03.173Z,3.25
2023-05-29T16:58:05.217Z,2.47
2023-05-29T17:01:07.848Z,3.45
2023-05-29T17:04:11.536Z,2.90
2023-05-29T17:07:14.447Z,3.47
2023-05-29T17:10:18.486Z,2.90
2023-05-29T17:13:20.489Z,2.97
2023-05-29T17:16:22.612Z,2.95
2023-05-29T17:19:27.612Z,2.92
2023-05-29T17:22:29.576Z,3.05
2023-05-29T17:25:31.758Z,3.03
2023-05-29T17:28:33.729Z,2.80
2023-05-29T17:31:37.313Z,3.00
2023-05-29T17:34:39.817Z,3.08
2023-05-29T17:37:42.656Z,3.15
2023-05-29T17:40:45.321Z,3.00
2023-05-29T17:43:47.272Z,3.37
2023-05-29T17:46:49.222Z,4.32
2023-05-29T17:49:52.154Z,2.90
2023-05-29T17:52:53.968Z,2.67
2023-05-29T17:56:01.194Z,2.30
2023-05-29T17:59:03.042Z,2.92
2023-05-29T18:02:05.427Z,2.92
2023-05-29T18:05:07.426Z,2.75
2023-05-29T18:08:09.548Z,3.25
2023-05-29T18:11:11.338Z,2.60
2023-05-29T18:14:13.998Z,2.97
2023-05-29T18:17:17.163Z,2.90
2023-05-29T18:20:30.037Z,2.80
2023-05-29T18:23:32.090Z,2.85
2023-05-29T18:26:34.228Z,2.70
2023-05-29T18:29:36.108Z,3.50
2023-05-29T18:32:39.919Z,2.80
2023-05-29T18:35:42.180Z,2.83
2023-05-29T18:38:44.217Z,3.00
2023-05-29T18:41:46.705Z,2.53
2023-05-29T18:44:51.860Z,2.60
2023-05-29T18:47:53.727Z,2.72
2023-05-29T18:50:56.833Z,3.20
2023-05-29T18:53:59.573Z,2.95
2023-05-29T18:57:02.498Z,2.73
2023-05-29T19:00:06.499Z,2.13
2023-05-29T19:03:10.075Z,2.90
2023-05-29T19:06:12.984Z,3.17
2023-05-29T19:09:15.894Z,3.00
2023-05-29T19:12:17.910Z,3.00
2023-05-29T19:15:19.782Z,2.72
2023-05-29T19:18:30.447Z,3.25
2023-05-29T19:21:37.026Z,3.20
2023-05-29T19:24:39.524Z,2.75
2023-05-29T19:27:41.630Z,3.37
2023-05-29T19:30:43.408Z,3.08
2023-05-29T19:33:46.363Z,2.95
2023-05-29T19:36:51.317Z,3.42
2023-05-29T19:43:15.019Z,2.92
2023-05-29T19:49:22.129Z,2.80
2023-05-29T19:52:24.289Z,2.80
2023-05-29T19:55:26.912Z,3.22
2023-05-29T19:58:28.749Z,2.97
2023-05-29T20:01:31.050Z,2.70
2023-05-29T20:04:39.879Z,3.33
2023-05-29T20:07:43.293Z,2.90
2023-05-29T20:14:02.116Z,2.72
2023-05-29T20:17:04.371Z,3.13
2023-05-29T20:20:07.724Z,3.13
2023-05-29T20:23:09.655Z,2.92
2023-05-29T20:26:11.545Z,2.80
2023-05-29T20:29:13.335Z,3.00
2023-05-29T20:32:15.620Z,3.00
2023-05-29T20:35:21.700Z,3.10
2023-05-29T20:38:24.516Z,3.15
2023-05-29T20:41:26.636Z,2.60
2023-05-29T20:44:31.637Z,3.50
2023-05-29T20:47:33.899Z,2.35
2023-05-29T20:50:37.282Z,2.67
2023-05-29T20:53:39.338Z,2.85
2023-05-29T20:56:42.104Z,2.80
2023-05-29T20:59:43.926Z,2.95
2023-05-29T21:02:47.724Z,2.80
2023-05-29T21:05:49.798Z,3.10
2023-05-29T21:08:53.247Z,3.13
2023-05-29T21:15:01.939Z,2.83
2023-05-29T21:18:04.126Z,2.78
2023-05-29T21:27:45.780Z,3.22
2023-05-29T21:30:48.127Z,2.63
2023-05-29T21:33:50.780Z,2.75
2023-05-29T21:36:52.644Z,2.53
2023-05-29T21:39:59.180Z,2.78
2023-05-29T21:43:01.871Z,2.58
2023-05-29T21:46:13.151Z,2.60
2023-05-29T21:49:21.215Z,2.47
2023-05-29T21:52:23.059Z,2.50
2023-05-29T21:55:24.896Z,2.90
2023-05-29T21:58:28.289Z,2.28
2023-05-29T22:04:37.550Z,2.35
2023-05-29T22:07:41.348Z,3.28
2023-05-29T22:10:43.462Z,2.58
2023-05-29T22:13:53.139Z,2.65
2023-05-29T22:16:55.773Z,2.08
2023-05-29T22:19:57.974Z,3.08
2023-05-29T22:23:09.411Z,2.65
2023-05-29T22:26:21.453Z,3.40
2023-05-29T22:29:28.930Z,2.75
2023-05-29T22:32:30.833Z,2.60
2023-05-29T22:35:33.050Z,2.70
2023-05-29T22:38:34.861Z,2.80
2023-05-29T22:41:40.565Z,2.35
2023-05-29T22:44:42.392Z,2.60
2023-05-29T22:47:45.090Z,2.78
2023-05-29T22:50:47.437Z,2.05
2023-05-29T22:53:50.511Z,3.20
2023-05-29T22:56:53.560Z,2.85
2023-05-29T23:00:02.879Z,2.95
2023-05-29T23:03:06.818Z,2.85
2023-05-29T23:06:10.684Z,3.33
2023-05-29T23:09:16.224Z,2.63
2023-05-29T23:12:18.125Z,2.47
2023-05-29T23:15:20.145Z,2.40
2023-05-29T23:18:25.895Z,2.92
2023-05-29T23:21:28.372Z,2.38
2023-05-29T23:24:33.896Z,2.38
2023-05-29T23:27:36.766Z,2.53
2023-05-29T23:30:40.639Z,2.55
2023-05-29T23:33:42.968Z,2.03
2023-05-29T23:36:46.608Z,2.33
2023-05-29T23:39:48.606Z,2.70
2023-05-29T23:42:50.617Z,2.28
2023-05-29T23:45:52.738Z,2.70
2023-05-29T23:49:07.010Z,2.20
2023-05-29T23:52:09.611Z,2.85
2023-05-29T23:55:11.544Z,1.93
2023-05-29T23:58:13.445Z,2.50
